METAR Data
IDs: Format: Raw Decoded Include TAF

Data at: 1221 UTC 16 Feb 2019

PAPN 161156Z AUTO 11003KT 7SM FEW031 BKN080 OVC100 00/00 A3002 RMK AO2 SLP167 60025 70029 T00000000 10039 20000 51027 PWINO FZRANO
PAPN 161144Z AUTO 09004KT 6SM BR FEW002 BKN037 OVC055 00/00 A3001 RMK AO2 PWINO FZRANO
PAPN 161132Z AUTO 06003KT 3SM BR SCT002 BKN016 OVC031 00/00 A3001 RMK AO2 PWINO FZRANO
PAPN 161123Z AUTO 02003KT 2SM BR BKN002 BKN007 OVC016 00/00 A3001 RMK AO2 VIS 1 3/4V3 CIG 002V005 PWINO FZRANO
PAPN 161111Z AUTO 33005KT 3SM BR BKN002 OVC009 00/M01 A3001 RMK AO2 CIG 002V005 PWINO FZRANO
PAPN 161056Z AUTO 33007KT 2SM BR BKN009 BKN016 OVC023 00/00 A3001 RMK AO2 CIG 008V011 SLP163 P0002 T00000000 PWINO FZRANO
PAPN 161053Z AUTO 33008KT 2SM BR BKN009 BKN016 OVC023 00/00 A3001 RMK AO2 CIG 008V011 P0001 PWINO FZRANO
PAPN 161048Z AUTO 33007KT 2 1/2SM BR SCT009 BKN016 OVC024 00/00 A3001 RMK AO2 P0001 PWINO FZRANO
PAPN 161033Z AUTO 32010KT 5SM BR SCT007 SCT013 OVC023 01/00 A3000 RMK AO2 P0001 PWINO FZRANO
PAPN 161024Z AUTO 32010KT 7SM BKN007 OVC013 01/01 A3000 RMK AO2 P0001 PWINO FZRANO
PAPN 160956Z AUTO 30010KT 6SM BR OVC011 01/01 A2999 RMK AO2 CIG 007V013 SLP157 P0006 T00110011 PWINO FZRANO
PAPN 160918Z AUTO 27005KT 7SM BKN013 OVC020 02/02 A2995 RMK AO2 P0002 PWINO FZRANO
PAPN 160904Z AUTO 27006KT 6SM BR FEW003 BKN016 OVC020 02/02 A2994 RMK AO2 P0001 PWINO FZRANO
PAPN 160856Z AUTO 27006KT 7SM SCT003 BKN008 OVC020 02/02 A2994 RMK AO2 SLP140 P0005 60017 T00170017 53018 PWINO FZRANO
PAPN 160829Z AUTO 25006KT 4SM BR BKN003 BKN018 OVC024 02/02 A2993 RMK AO2 CIG 003V007 P0002 PWINO FZRANO
PAPN 160814Z AUTO 24007KT 3SM BR FEW003 BKN018 OVC031 03/02 A2992 RMK AO2 P0001 PWINO
PAPN 160803Z AUTO 24008KT 2 1/2SM BR FEW012 BKN026 OVC031 03/02 A2992 RMK AO2 P0001 PWINO
PAPN 160756Z AUTO 24008KT 1 3/4SM BR SCT018 OVC024 02/02 A2992 RMK AO2 SLP133 P0006 T00220022 400611056 PWINO FZRANO
PAPN 160750Z AUTO 23007KT 2 1/2SM BR FEW007 BKN018 OVC024 02/02 A2992 RMK AO2 P0006 400611056 PWINO FZRANO
PAPN 160738Z AUTO 22005KT 6SM BR FEW013 SCT018 OVC024 03/03 A2991 RMK AO2 P0005 PWINO
PAPN 160729Z AUTO 22006KT 7SM FEW006 BKN011 OVC026 03/03 A2992 RMK AO2 P0004 PWINO
PAPN 160703Z AUTO 21006KT 8SM BKN011 BKN024 OVC029 03/03 A2990 RMK AO2 PWINO
PAPN 160656Z AUTO 21006KT 7SM SCT011 BKN016 OVC029 03/03 A2990 RMK AO2 SLP127 P0006 T00330028 PWINO
PAPN 160556Z AUTO 21005KT 8SM BKN018 OVC023 04/03 A2989 RMK AO2 SLP122 P0004 60004 T00390033 10061 20039 53020 PWINO
PAPN 160456Z AUTO 16003KT 8SM OVC026 04/02 A2986 RMK AO2 SLP114 T00390022 PWINO
PAPN 160439Z AUTO 17005KT 10SM BKN028 OVC033 04/02 A2986 RMK AO2 PWINO
PAPN 160356Z AUTO 15005KT 10SM OVC036 04/02 A2984 RMK AO2 SLP105 T00440017 PWINO
PAPN 160256Z AUTO 14007KT 10SM OVC044 05/01 A2983 RMK AO2 SLP102 T00500011 56006 PWINO
PAPN 160156Z AUTO 14010KT 10SM OVC055 05/02 A2983 RMK AO2 SLP103 T00500017 PWINO
PAPN 160056Z AUTO 13009KT 10SM SCT045 OVC060 06/01 A2982 RMK AO2 SLP101 T00560011 PWINO
PAPN 152356Z AUTO 13008KT 10SM BKN055 BKN070 OVC085 05/00 A2984 RMK AO2 SLP108 T00500000 10050 21056 56015 PWINO
PAPN 152256Z AUTO 14007KT 10SM CLR 03/M02 A2986 RMK AO2 SLP112 T00331017 PWINO
PAPN 152156Z AUTO 13008KT 10SM CLR 02/00 A2987 RMK AO2 SLP115 T00220000 PWINO FZRANO
PAPN 152056Z AUTO 11008KT 10SM FEW044 01/M01 A2989 RMK AO2 SLP122 T00061011 55016 PWINO FZRANO
PAPN 151956Z AUTO 10012KT 10SM CLR M03/M04 A2988 RMK AO2 PRESFR SLP121 T10281039 PWINO FZRANO
PAPN 151856Z AUTO 09008KT 10SM CLR M04/M05 A2992 RMK AO2 SLP133 T10391050 PWINO FZRANO
PAPN 151756Z AUTO 08009KT 10SM CLR M06/M06 A2993 RMK AO2 SLP138 T10561061 11028 21056 58011 PWINO FZRANO
PAPN 151556Z AUTO 07009KT 10SM FEW004 M05/M06 A2997 RMK AO2 SLP150 T10501056 PWINO FZRANO
PAPN 151554Z AUTO 07009KT 10SM SCT004 M05/M06 A2997 RMK AO2 PWINO FZRANO
PAPN 151456Z AUTO 08008KT 10SM OVC004 M04/M05 A3000 RMK AO2 SLP161 T10441050 56015 PWINO FZRANO
PAPN 151429Z AUTO 08007KT 10SM OVC006 M04/M04 A3001 RMK AO2 CIG 003V008 PWINO FZRANO
PAPN 151356Z AUTO 08008KT 10SM BKN004 M04/M04 A3001 RMK AO2 SLP164 T10391044 PWINO FZRANO
PAPN 151256Z AUTO 09008KT 10SM SCT003 M04/M04 A3003 RMK AO2 SLP170 T10391039 PWINO FZRANO
PAPN 151234Z AUTO 09007KT 3SM BR OVC003 M03/M03 A3003 RMK AO2 PWINO FZRANO
PAPN 151228Z AUTO 10006KT 1 1/4SM BR OVC003 M03/M03 A3003 RMK AO2 PWINO FZRANO
PAPN 151219Z AUTO 09005KT 3/4SM BR OVC003 M03/M03 A3004 RMK AO2 PWINO FZRANO
PAPN 151204Z AUTO 10005KT 1/2SM FZFG OVC003 M03/M03 A3004 RMK AO2 PWINO FZRANO
PAPN 151156Z AUTO 10005KT 1/4SM FZFG OVC003 M03/M03 A3005 RMK AO2 SLP176 T10331033 11006 21044 58003 PWINO FZRANO
PAPN 151135Z AUTO 08005KT 1/4SM FZFG OVC003 M03/M04 A3005 RMK AO2 PWINO FZRANO
PAPN 151126Z AUTO 10005KT 1/2SM FZFG OVC003 M04/M04 A3005 RMK AO2 PWINO FZRANO
PAPN 151114Z AUTO 10005KT 3/4SM BR OVC003 M04/M04 A3005 RMK AO2 PWINO FZRANO
PAPN 151101Z AUTO 10006KT 1 1/4SM BR OVC003 M04/M04 A3005 RMK AO2 PWINO FZRANO
PAPN 151056Z AUTO 10006KT 3/4SM BR BKN003 M04/M05 A3005 RMK AO2 SLP179 T10441050 PWINO FZRANO
PAPN 151054Z AUTO 09006KT 1/2SM FZFG BKN003 M04/M05 A3005 RMK AO2 PWINO FZRANO
PAPN 151044Z AUTO 11008KT 3/4SM BR BKN003 M04/M05 A3006 RMK AO2 PWINO FZRANO
PAPN 151040Z AUTO 09006KT 1 3/4SM BR SCT003 M04/M05 A3006 RMK AO2 PWINO FZRANO
PAPN 151035Z AUTO VRB04KT 3SM BR FEW003 M04/M04 A3005 RMK AO2 PWINO FZRANO
PAPN 151027Z AUTO 16003KT 1 3/4SM BR CLR M03/M04 A3005 RMK AO2 PWINO FZRANO
PAPN 151019Z AUTO 00000KT 3SM BR CLR M03/M03 A3005 RMK AO2 PWINO FZRANO
PAPN 151009Z AUTO 13003KT 1 3/4SM BR FEW015 M03/M03 A3005 RMK AO2 VIS 3/4V5 PWINO FZRANO
PAPN 150956Z AUTO 00000KT 7SM CLR M02/M02 A3005 RMK AO2 SLP179 T10221022 PWINO FZRANO
PAPN 150856Z AUTO 23005KT 9SM CLR M02/M02 A3006 RMK AO2 SLP179 T10171022 53004 PWINO FZRANO
PAPN 150843Z AUTO 22007KT 9SM SCT003 M01/M02 A3005 RMK AO2 PWINO FZRANO
PAPN 150830Z AUTO 22006KT 7SM BKN003 M01/M02 A3005 RMK AO2 PWINO FZRANO
PAPN 150822Z AUTO 20006KT 2 1/2SM BR OVC003 M01/M02 A3005 RMK AO2 PWINO FZRANO
PAPN 150756Z AUTO 11004KT 10SM OVC003 M02/M02 A3004 RMK AO2 SLP175 T10171022 400061111 PWINO FZRANO
PAPN 150748Z AUTO 14003KT 10SM OVC003 M01/M02 A3004 RMK AO2 PWINO FZRANO
PAPN 150740Z AUTO 17004KT 10SM OVC005 M02/M02 A3004 RMK AO2 CIG 003V009 PWINO FZRANO
PAPN 150726Z AUTO 13003KT 10SM OVC007 M02/M02 A3004 RMK AO2 CIG 004V012 PWINO FZRANO
PAPN 150656Z AUTO 16006KT 10SM BKN005 OVC021 M01/M02 A3004 RMK AO2 SLP175 T10111017 PWINO FZRANO
PAPN 150653Z AUTO 15005KT 10SM BKN005 BKN013 OVC021 M01/M02 A3004 RMK AO2 PWINO FZRANO
PAPN 150646Z AUTO 15005KT 10SM BKN007 BKN013 OVC021 M01/M02 A3005 RMK AO2 PWINO FZRANO
PAPN 150608Z AUTO 19005KT 10SM SCT009 OVC019 M01/M02 A3005 RMK AO2 PWINO FZRANO
PAPN 150556Z AUTO 19006KT 10SM SCT011 OVC017 M01/M03 A3004 RMK AO2 SLP175 T10111028 10006 21011 50004 PWINO FZRANO
PAPN 150536Z AUTO 18007KT 10SM BKN011 OVC017 M01/M04 A3004 RMK AO2 PWINO FZRANO
PAPN 150513Z AUTO 17004KT 10SM OVC009 M01/M04 A3005 RMK AO2 CIG 009V013 PWINO FZRANO
PAPN 150456Z AUTO 16006KT 10SM OVC014 M01/M06 A3005 RMK AO2 SLP177 T10111056 PWINO FZRANO
PAPN 150356Z AUTO 15004KT 10SM OVC018 M01/M07 A3005 RMK AO2 SLP176 T10111067 PWINO FZRANO
PAPN 150256Z AUTO 10006KT 10SM SCT022 BKN029 OVC034 M01/M08 A3003 RMK AO2 SLP172 T10111078 55006 PWINO FZRANO
PAPN 150056Z AUTO 12005KT 10SM OVC047 M01/M13 A3004 RMK AO2 SLP175 T10061128 PWINO FZRANO